Time;durP1;ratioP1;P1;durP2;ratioP2;P2;SDS_P1;SDS_P2;PMS_P1;PMS_P2;Temp;Humidity;BMP_temperature;BMP_pressure;BME280_temperature;BME280_humidity;BME280_pressure;Samples;Min_cycle;Max_cycle;Signal;HPM_P1;HPM_P2
2023/05/21 00:00:22;;;;;;;20.98;13.32;;;;;;;;;;5141028;27;20035;-90
2023/05/21 00:02:50;;;;;;;22.83;13.52;;;;;;;;;;5140256;27;20023;-90
2023/05/21 00:05:17;;;;;;;17.83;14.05;;;;;;;;;;5141374;27;20023;-91
2023/05/21 00:07:44;;;;;;;17.67;13.02;;;;;;;;;;5141146;27;20110;-90
2023/05/21 00:10:11;;;;;;;19.52;14.60;;;;;;;;;;5139955;27;20024;-91
2023/05/21 00:12:37;;;;;;;16.40;12.73;;;;;;;;;;5141098;27;20071;-91
2023/05/21 00:15:03;;;;;;;19.00;13.85;;;;;;;;;;5140857;27;20031;-90
2023/05/21 00:17:29;;;;;;;22.45;13.90;;;;;;;;;;5139801;27;20031;-92
2023/05/21 00:19:55;;;;;;;16.77;14.45;;;;;;;;;;5141085;27;20043;-90
2023/05/21 00:22:22;;;;;;;22.38;14.60;;;;;;;;;;5135767;27;20176;-91
2023/05/21 00:24:48;;;;;;;21.88;14.73;;;;;;;;;;5107879;28;20035;-85
2023/05/21 00:33:21;;;;;;;21.10;14.32;;;;;;;;;;5111913;28;20069;-89
2023/05/21 00:35:47;;;;;;;21.83;14.07;;;;;;;;;;5123774;28;20045;-94
2023/05/21 00:38:13;;;;;;;19.08;13.43;;;;;;;;;;5099141;28;20044;-95
2023/05/21 00:40:40;;;;;;;19.65;13.55;;;;;;;;;;5099360;28;20043;-93
2023/05/21 00:43:08;;;;;;;19.95;12.52;;;;;;;;;;5107841;28;20477;-94
2023/05/21 00:45:35;;;;;;;19.45;12.77;;;;;;;;;;5140510;28;20107;-94
2023/05/21 00:48:03;;;;;;;17.73;13.13;;;;;;;;;;5122308;28;20111;-91
2023/05/21 00:50:29;;;;;;;15.35;12.90;;;;;;;;;;5099458;28;20028;-92
2023/05/21 00:52:58;;;;;;;19.10;13.13;;;;;;;;;;5098176;28;20030;-92
2023/05/21 00:55:24;;;;;;;19.27;13.73;;;;;;;;;;5099214;28;20035;-92
2023/05/21 01:00:55;;;;;;;20.95;13.38;;;;;;;;;;5099270;28;20054;-92
2023/05/21 01:03:22;;;;;;;20.17;13.20;;;;;;;;;;5098175;28;20299;-92
2023/05/21 01:05:53;;;;;;;21.00;13.55;;;;;;;;;;5097969;28;20024;-91
2023/05/21 01:08:20;;;;;;;16.13;13.10;;;;;;;;;;5099146;28;20035;-92
2023/05/21 01:10:47;;;;;;;20.02;13.48;;;;;;;;;;5099168;28;20103;-91
2023/05/21 01:13:32;;;;;;;18.10;13.55;;;;;;;;;;5098587;28;20025;-92
2023/05/21 01:15:59;;;;;;;17.95;13.68;;;;;;;;;;5097876;28;20402;-91
2023/05/21 01:18:25;;;;;;;17.17;12.35;;;;;;;;;;5097822;28;20020;-93
2023/05/21 01:20:52;;;;;;;17.77;13.18;;;;;;;;;;5118780;28;20047;-92
2023/05/21 01:23:19;;;;;;;18.80;13.20;;;;;;;;;;5118884;28;20031;-93
2023/05/21 01:25:45;;;;;;;19.75;12.10;;;;;;;;;;5103865;28;20035;-93
2023/05/21 01:31:43;;;;;;;17.80;12.48;;;;;;;;;;5098983;28;20069;-92
2023/05/21 01:34:10;;;;;;;14.70;12.45;;;;;;;;;;5118063;28;20023;-91
2023/05/21 01:36:39;;;;;;;14.95;11.65;;;;;;;;;;5118915;28;20023;-91
2023/05/21 01:39:08;;;;;;;16.52;12.90;;;;;;;;;;5103811;28;20047;-92
2023/05/21 01:41:38;;;;;;;16.85;12.90;;;;;;;;;;5117778;28;20059;-92
2023/05/21 01:44:05;;;;;;;15.68;13.00;;;;;;;;;;5117728;28;20024;-92
2023/05/21 01:46:32;;;;;;;17.60;12.45;;;;;;;;;;5118456;28;20024;-93
2023/05/21 01:48:59;;;;;;;17.08;13.02;;;;;;;;;;5118733;28;20028;-91
2023/05/21 01:51:25;;;;;;;20.23;12.73;;;;;;;;;;5118877;28;20378;-91
2023/05/21 01:53:51;;;;;;;18.25;13.93;;;;;;;;;;5117424;28;20035;-90
2023/05/21 01:56:17;;;;;;;17.30;12.93;;;;;;;;;;5117699;28;20058;-90
2023/05/21 02:01:47;;;;;;;19.67;13.52;;;;;;;;;;5118393;28;20053;-92
2023/05/21 02:04:13;;;;;;;16.75;12.88;;;;;;;;;;5117429;28;20032;-91
2023/05/21 02:06:40;;;;;;;18.60;13.32;;;;;;;;;;5118387;28;20028;-92
2023/05/21 02:09:06;;;;;;;16.77;12.15;;;;;;;;;;5118689;28;20363;-91
2023/05/21 02:11:33;;;;;;;19.77;13.35;;;;;;;;;;5109534;28;20016;-92
2023/05/21 02:13:59;;;;;;;19.35;13.50;;;;;;;;;;5098064;28;20437;-92
2023/05/21 02:16:25;;;;;;;16.13;12.38;;;;;;;;;;5101935;28;20031;-92
2023/05/21 02:18:55;;;;;;;21.95;12.88;;;;;;;;;;5100745;28;20028;-93
2023/05/21 02:21:21;;;;;;;17.75;12.93;;;;;;;;;;5109804;28;20410;-93
2023/05/21 02:23:47;;;;;;;15.18;12.75;;;;;;;;;;5098194;28;20055;-92
2023/05/21 02:26:14;;;;;;;16.65;12.73;;;;;;;;;;5097492;28;20024;-91
2023/05/21 02:28:40;;;;;;;18.73;13.13;;;;;;;;;;5097615;28;20472;-91
2023/05/21 02:31:06;;;;;;;21.65;11.82;;;;;;;;;;5097535;28;20422;-90
2023/05/21 02:33:32;;;;;;;24.75;12.95;;;;;;;;;;5099637;28;20036;-90
2023/05/21 02:35:58;;;;;;;18.85;12.52;;;;;;;;;;5126369;28;20084;-90
2023/05/21 02:38:24;;;;;;;19.48;12.57;;;;;;;;;;5118229;28;20031;-90
2023/05/21 02:40:50;;;;;;;16.52;11.90;;;;;;;;;;5118312;28;20030;-91
2023/05/21 02:43:16;;;;;;;18.00;12.20;;;;;;;;;;5117039;28;20058;-90
2023/05/21 02:45:43;;;;;;;19.77;12.32;;;;;;;;;;5104708;28;20028;-92
2023/05/21 02:48:10;;;;;;;16.63;11.65;;;;;;;;;;5100536;28;20645;-91
2023/05/21 02:50:36;;;;;;;14.57;11.15;;;;;;;;;;5101853;28;20149;-90
2023/05/21 02:53:02;;;;;;;21.40;11.77;;;;;;;;;;5101721;28;20055;-91
2023/05/21 02:55:29;;;;;;;17.85;11.40;;;;;;;;;;5101562;28;20107;-90
2023/05/21 02:57:55;;;;;;;17.23;11.80;;;;;;;;;;5100482;28;20430;-90
2023/05/21 03:00:21;;;;;;;21.45;12.50;;;;;;;;;;5120398;28;20118;-89
2023/05/21 03:02:47;;;;;;;17.17;11.57;;;;;;;;;;5120860;28;20024;-89
2023/05/21 03:05:13;;;;;;;15.13;11.48;;;;;;;;;;5120806;28;20036;-90
2023/05/21 03:07:40;;;;;;;22.20;12.27;;;;;;;;;;5120380;28;20039;-89
2023/05/21 03:10:06;;;;;;;23.65;11.60;;;;;;;;;;5120642;28;20051;-90
2023/05/21 03:13:23;;;;;;;17.77;11.88;;;;;;;;;;5120785;28;20024;-91
2023/05/21 03:15:55;;;;;;;18.85;12.23;;;;;;;;;;5121490;28;20031;-90
2023/05/21 03:18:21;;;;;;;14.15;11.23;;;;;;;;;;5106652;28;20077;-90
2023/05/21 03:20:47;;;;;;;14.15;11.13;;;;;;;;;;5101133;28;20043;-90
2023/05/21 03:23:13;;;;;;;18.80;11.05;;;;;;;;;;5100947;28;20059;-90
2023/05/21 03:25:39;;;;;;;19.02;11.88;;;;;;;;;;5101117;28;20131;-90
2023/05/21 03:28:05;;;;;;;17.73;11.43;;;;;;;;;;5118206;28;20031;-90
2023/05/21 03:30:32;;;;;;;16.63;10.52;;;;;;;;;;5120279;28;20107;-90
2023/05/21 03:32:58;;;;;;;17.45;11.75;;;;;;;;;;5119986;28;20393;-90
2023/05/21 03:35:25;;;;;;;17.30;11.50;;;;;;;;;;5115326;28;20108;-91
2023/05/21 03:37:51;;;;;;;15.35;11.60;;;;;;;;;;5099717;28;20111;-89
2023/05/21 03:40:17;;;;;;;16.70;11.90;;;;;;;;;;5099727;28;20040;-92
2023/05/21 03:42:43;;;;;;;17.77;11.98;;;;;;;;;;5107392;28;20019;-91
2023/05/21 03:45:09;;;;;;;14.00;11.50;;;;;;;;;;5121098;28;20063;-93
2023/05/21 03:47:35;;;;;;;18.52;11.90;;;;;;;;;;5121010;28;20020;-92
2023/05/21 03:50:02;;;;;;;20.50;11.25;;;;;;;;;;5120007;28;20023;-92
2023/05/21 03:52:28;;;;;;;13.57;10.55;;;;;;;;;;5121083;28;20338;-92
2023/05/21 03:54:54;;;;;;;20.35;11.13;;;;;;;;;;5119909;28;20317;-92
2023/05/21 04:00:38;;;;;;;18.15;11.88;;;;;;;;;;5120553;28;20042;-92
2023/05/21 04:03:05;;;;;;;14.93;11.75;;;;;;;;;;5120556;28;20429;-93
2023/05/21 04:05:32;;;;;;;24.52;11.40;;;;;;;;;;5120883;28;20320;-91
2023/05/21 04:07:59;;;;;;;17.10;10.80;;;;;;;;;;5120046;28;20119;-90
2023/05/21 04:10:25;;;;;;;17.80;11.32;;;;;;;;;;5119590;28;20019;-89
2023/05/21 04:12:52;;;;;;;16.42;11.10;;;;;;;;;;5119603;28;20016;-90
2023/05/21 04:15:20;;;;;;;15.20;10.80;;;;;;;;;;5120740;28;20027;-89
2023/05/21 04:17:47;;;;;;;14.73;11.35;;;;;;;;;;5120556;28;20016;-89
2023/05/21 04:20:15;;;;;;;12.82;10.93;;;;;;;;;;5102011;28;20028;-91
2023/05/21 04:22:42;;;;;;;13.88;10.70;;;;;;;;;;5099988;28;20039;-91
2023/05/21 04:25:08;;;;;;;20.42;11.30;;;;;;;;;;5114251;28;20478;-91
2023/05/21 04:31:17;;;;;;;17.77;12.95;;;;;;;;;;5099986;28;20039;-92
2023/05/21 04:33:44;;;;;;;19.00;12.27;;;;;;;;;;5099670;28;20101;-90
2023/05/21 04:36:11;;;;;;;17.30;11.48;;;;;;;;;;5099857;28;20020;-91
2023/05/21 04:38:40;;;;;;;14.63;10.75;;;;;;;;;;5098479;28;20024;-90
2023/05/21 04:41:09;;;;;;;13.02;10.77;;;;;;;;;;5101437;27;20031;-92
2023/05/21 04:43:35;;;;;;;17.05;11.50;;;;;;;;;;5140792;27;20065;-91
2023/05/21 04:46:01;;;;;;;15.32;10.98;;;;;;;;;;5139101;27;20050;-91
2023/05/21 04:48:27;;;;;;;13.15;10.68;;;;;;;;;;5140555;27;20023;-91
2023/05/21 04:50:54;;;;;;;13.27;10.07;;;;;;;;;;5140336;27;20312;-92
2023/05/21 04:53:21;;;;;;;15.77;11.18;;;;;;;;;;5128647;27;20047;-91
2023/05/21 04:55:48;;;;;;;18.45;10.55;;;;;;;;;;5117469;28;20459;-90
2023/05/21 04:58:16;;;;;;;15.50;10.57;;;;;;;;;;5100500;28;20044;-91
2023/05/21 05:00:45;;;;;;;15.98;10.55;;;;;;;;;;5119586;28;20047;-91
2023/05/21 05:03:11;;;;;;;17.13;12.93;;;;;;;;;;5119664;28;20050;-91
2023/05/21 05:05:37;;;;;;;19.00;10.73;;;;;;;;;;5119547;28;20397;-92
2023/05/21 05:08:03;;;;;;;13.75;10.73;;;;;;;;;;5118455;28;20406;-92
2023/05/21 05:10:29;;;;;;;11.25;9.05;;;;;;;;;;5118938;28;20024;-91
2023/05/21 05:12:55;;;;;;;13.90;10.82;;;;;;;;;;5119207;28;20016;-92
2023/05/21 05:15:22;;;;;;;12.48;10.45;;;;;;;;;;5119116;28;20107;-92
2023/05/21 05:17:49;;;;;;;17.02;9.95;;;;;;;;;;5119487;28;20417;-93
2023/05/21 05:20:15;;;;;;;15.30;10.02;;;;;;;;;;5118117;28;20032;-92
2023/05/21 05:22:41;;;;;;;19.75;9.85;;;;;;;;;;5118571;28;20051;-90
2023/05/21 05:25:08;;;;;;;21.35;10.70;;;;;;;;;;5113146;28;20436;-91
2023/05/21 05:27:34;;;;;;;13.52;9.80;;;;;;;;;;5098674;28;20035;-91
2023/05/21 05:30:00;;;;;;;12.57;9.68;;;;;;;;;;5097726;28;20023;-91
2023/05/21 05:32:26;;;;;;;12.70;10.38;;;;;;;;;;5098714;28;20024;-90
2023/05/21 05:34:52;;;;;;;15.07;10.38;;;;;;;;;;5097277;28;20700;-90
2023/05/21 05:37:18;;;;;;;9.88;8.75;;;;;;;;;;5097374;28;20028;-90
2023/05/21 05:39:44;;;;;;;14.98;9.65;;;;;;;;;;5098581;28;20028;-91
2023/05/21 05:42:10;;;;;;;16.50;10.18;;;;;;;;;;5098435;28;20020;-90
2023/05/21 05:44:36;;;;;;;14.63;11.15;;;;;;;;;;5098100;28;20028;-90
2023/05/21 05:47:07;;;;;;;12.73;9.75;;;;;;;;;;5106570;28;20024;-91
2023/05/21 05:49:36;;;;;;;14.15;10.73;;;;;;;;;;5118862;28;20148;-92
2023/05/21 05:52:02;;;;;;;14.60;10.00;;;;;;;;;;5118324;28;20485;-91
2023/05/21 05:54:28;;;;;;;16.63;9.82;;;;;;;;;;5118598;28;20124;-91
2023/05/21 05:56:54;;;;;;;18.95;9.93;;;;;;;;;;5117733;28;20027;-91
2023/05/21 05:59:24;;;;;;;18.17;10.30;;;;;;;;;;5118418;28;20055;-89
2023/05/21 06:01:50;;;;;;;15.85;10.40;;;;;;;;;;5117184;28;20112;-92
2023/05/21 06:04:16;;;;;;;14.15;10.52;;;;;;;;;;5106850;28;20028;-91
2023/05/21 06:06:42;;;;;;;10.52;9.38;;;;;;;;;;5097317;28;20318;-92
2023/05/21 06:09:08;;;;;;;14.27;9.77;;;;;;;;;;5097274;28;20110;-93
2023/05/21 06:11:34;;;;;;;15.25;10.18;;;;;;;;;;5097269;28;20020;-92
2023/05/21 06:14:00;;;;;;;10.60;9.43;;;;;;;;;;5103854;28;20044;-92
2023/05/21 06:16:30;;;;;;;15.75;10.75;;;;;;;;;;5106828;28;20035;-92
2023/05/21 06:18:56;;;;;;;11.90;9.32;;;;;;;;;;5107949;28;20118;-93
2023/05/21 06:21:22;;;;;;;12.90;9.75;;;;;;;;;;5117066;28;20023;-91
2023/05/21 06:23:48;;;;;;;16.05;9.85;;;;;;;;;;5116800;28;20061;-94
2023/05/21 06:26:14;;;;;;;13.63;9.63;;;;;;;;;;5117104;28;20036;-92
2023/05/21 06:28:40;;;;;;;12.23;10.02;;;;;;;;;;5118304;28;20020;-90
2023/05/21 06:31:06;;;;;;;12.18;9.82;;;;;;;;;;5117916;28;20447;-90
2023/05/21 06:33:33;;;;;;;13.48;10.35;;;;;;;;;;5116778;28;20047;-90
2023/05/21 06:35:59;;;;;;;12.20;10.50;;;;;;;;;;5096699;28;20027;-90
2023/05/21 06:38:25;;;;;;;13.48;10.18;;;;;;;;;;5097719;28;20032;-89
2023/05/21 06:40:51;;;;;;;12.65;9.65;;;;;;;;;;5096730;28;20479;-89
2023/05/21 06:43:17;;;;;;;16.10;11.05;;;;;;;;;;5099333;28;20028;-92
2023/05/21 06:45:43;;;;;;;11.30;10.02;;;;;;;;;;5117268;28;20031;-90
2023/05/21 06:48:11;;;;;;;11.75;9.05;;;;;;;;;;5097330;28;20020;-89
2023/05/21 06:50:37;;;;;;;13.90;9.45;;;;;;;;;;5103132;28;20023;-88
2023/05/21 06:53:03;;;;;;;13.75;9.48;;;;;;;;;;5116756;28;20036;-91
2023/05/21 06:55:29;;;;;;;13.75;9.20;;;;;;;;;;5114168;28;20040;-94
2023/05/21 06:58:07;;;;;;;12.15;9.50;;;;;;;;;;5101973;28;20074;-96
2023/05/21 07:12:46;;;;;;;14.13;9.68;;;;;;;;;;2061706;23;20288;-93
2023/05/21 07:15:12;;;;;;;13.50;9.88;;;;;;;;;;4991935;28;20057;-94
2023/05/21 07:17:38;;;;;;;14.25;10.48;;;;;;;;;;4961445;28;20061;-94
2023/05/21 07:20:08;;;;;;;14.80;9.80;;;;;;;;;;4978554;28;20105;-92
2023/05/21 07:22:37;;;;;;;12.95;9.07;;;;;;;;;;4978553;28;20023;-92
2023/05/21 07:25:04;;;;;;;11.20;9.73;;;;;;;;;;4978547;28;20039;-92
2023/05/21 07:27:30;;;;;;;13.77;10.30;;;;;;;;;;4961319;28;20031;-92
2023/05/21 07:29:56;;;;;;;14.20;9.60;;;;;;;;;;4978528;28;20027;-91
2023/05/21 07:32:22;;;;;;;12.27;9.52;;;;;;;;;;4978293;28;20421;-92
2023/05/21 07:34:49;;;;;;;12.27;9.73;;;;;;;;;;4981755;28;20023;-92
2023/05/21 07:37:15;;;;;;;15.40;9.40;;;;;;;;;;4964464;28;20126;-92
2023/05/21 07:39:41;;;;;;;13.68;8.68;;;;;;;;;;4981867;28;20373;-92
2023/05/21 07:42:07;;;;;;;13.07;9.25;;;;;;;;;;4981808;28;20027;-92
2023/05/21 07:47:37;;;;;;;13.70;9.40;;;;;;;;;;4981478;28;20528;-90
2023/05/21 07:50:03;;;;;;;12.02;8.85;;;;;;;;;;4981504;28;20030;-93
2023/05/21 07:52:29;;;;;;;12.77;9.55;;;;;;;;;;4963649;28;20039;-91
2023/05/21 07:54:55;;;;;;;15.13;10.60;;;;;;;;;;4981315;28;20023;-92
2023/05/21 07:57:22;;;;;;;13.82;11.38;;;;;;;;;;4981119;28;20042;-91
2023/05/21 08:02:51;;;;;;;15.27;9.90;;;;;;;;;;4979821;28;20033;-91
2023/05/21 08:05:18;;;;;;;16.50;11.05;;;;;;;;;;4990507;28;20038;-91
2023/05/21 08:07:45;;;;;;;14.60;9.50;;;;;;;;;;4981081;28;20035;-92
2023/05/21 08:10:11;;;;;;;12.40;8.70;;;;;;;;;;4981096;28;20034;-91
2023/05/21 08:15:40;;;;;;;13.05;9.23;;;;;;;;;;4976772;28;20472;-92
2023/05/21 08:18:06;;;;;;;12.63;8.68;;;;;;;;;;4963840;28;20030;-91
2023/05/21 08:20:33;;;;;;;11.15;9.35;;;;;;;;;;4963755;28;20081;-91
2023/05/21 08:22:59;;;;;;;12.23;9.27;;;;;;;;;;4967584;28;20030;-91
2023/05/21 08:25:28;;;;;;;12.63;9.18;;;;;;;;;;4983144;28;20026;-89
2023/05/21 08:28:18;;;;;;;14.75;9.93;;;;;;;;;;4982325;28;20121;-89
2023/05/21 08:30:44;;;;;;;16.63;9.35;;;;;;;;;;4967106;28;20026;-90
2023/05/21 08:33:10;;;;;;;13.20;9.30;;;;;;;;;;5000271;28;20352;-89
2023/05/21 08:35:36;;;;;;;11.52;8.63;;;;;;;;;;4982858;28;20487;-89
2023/05/21 08:38:02;;;;;;;10.05;8.70;;;;;;;;;;4999428;28;20072;-89
2023/05/21 08:40:29;;;;;;;13.52;9.43;;;;;;;;;;4982787;28;20034;-88
2023/05/21 08:43:01;;;;;;;10.93;8.25;;;;;;;;;;4999733;28;20154;-88
2023/05/21 08:45:28;;;;;;;10.68;8.32;;;;;;;;;;4999278;28;20030;-88
2023/05/21 08:47:55;;;;;;;11.10;8.13;;;;;;;;;;4999703;28;20035;-89
2023/05/21 08:50:23;;;;;;;10.70;8.00;;;;;;;;;;4982536;28;20105;-88
2023/05/21 08:52:50;;;;;;;15.30;8.60;;;;;;;;;;4999848;28;20022;-88
2023/05/21 08:55:16;;;;;;;11.57;8.02;;;;;;;;;;4999918;28;20069;-87
2023/05/21 08:57:43;;;;;;;15.13;8.65;;;;;;;;;;4999469;28;20062;-88
2023/05/21 09:00:10;;;;;;;12.35;8.38;;;;;;;;;;4982276;28;20034;-88
2023/05/21 09:02:42;;;;;;;14.70;8.43;;;;;;;;;;4999173;28;20427;-88
2023/05/21 09:05:09;;;;;;;12.40;8.73;;;;;;;;;;4982541;28;20409;-88
2023/05/21 09:07:39;;;;;;;9.27;7.30;;;;;;;;;;4982291;28;20026;-88
2023/05/21 09:10:11;;;;;;;12.48;7.45;;;;;;;;;;4982248;28;20365;-88
2023/05/21 09:12:37;;;;;;;11.20;6.97;;;;;;;;;;4981908;28;20027;-87
2023/05/21 09:15:22;;;;;;;14.50;8.05;;;;;;;;;;4998965;28;20033;-91
2023/05/21 09:17:48;;;;;;;9.60;7.05;;;;;;;;;;4998740;28;20062;-88
2023/05/21 09:20:17;;;;;;;14.30;7.45;;;;;;;;;;4982025;28;20124;-87
2023/05/21 09:22:47;;;;;;;10.60;7.38;;;;;;;;;;4999244;28;20072;-87
2023/05/21 09:25:15;;;;;;;9.95;7.43;;;;;;;;;;4998563;28;20054;-90
2023/05/21 09:27:41;;;;;;;9.35;6.53;;;;;;;;;;4981596;28;20034;-89
2023/05/21 09:30:11;;;;;;;9.13;6.47;;;;;;;;;;4998944;28;20054;-88
2023/05/21 09:32:38;;;;;;;9.85;7.22;;;;;;;;;;4981358;28;20023;-89
2023/05/21 09:35:08;;;;;;;12.15;7.85;;;;;;;;;;4999239;28;20030;-87
2023/05/21 09:37:42;;;;;;;13.63;7.93;;;;;;;;;;4981489;28;20488;-88
2023/05/21 09:40:15;;;;;;;13.35;8.07;;;;;;;;;;4981087;28;20045;-87
2023/05/21 09:42:50;;;;;;;14.45;7.80;;;;;;;;;;4998492;28;20038;-88
2023/05/21 09:51:43;;;;;;;10.82;6.65;;;;;;;;;;4999541;28;20080;-88
2023/05/21 09:54:10;;;;;;;11.10;6.75;;;;;;;;;;4995796;28;20399;-88
2023/05/21 09:56:36;;;;;;;10.15;7.00;;;;;;;;;;4998397;28;20026;-88
2023/05/21 09:59:03;;;;;;;10.82;5.97;;;;;;;;;;4998626;28;20322;-87
2023/05/21 10:01:30;;;;;;;11.98;6.43;;;;;;;;;;4998543;28;20042;-86
2023/05/21 10:03:57;;;;;;;9.85;6.65;;;;;;;;;;4980852;28;20037;-86
2023/05/21 10:06:27;;;;;;;10.35;6.43;;;;;;;;;;4998699;28;20038;-87
2023/05/21 10:08:57;;;;;;;12.68;7.10;;;;;;;;;;4981022;28;20314;-86
2023/05/21 10:11:25;;;;;;;11.03;6.87;;;;;;;;;;4980698;28;20452;-86
2023/05/21 10:16:55;;;;;;;13.10;6.88;;;;;;;;;;4997706;28;20053;-87
2023/05/21 10:19:22;;;;;;;8.35;6.10;;;;;;;;;;4980951;28;20027;-89
2023/05/21 10:21:48;;;;;;;11.38;6.47;;;;;;;;;;4981089;28;20116;-91
2023/05/21 10:24:15;;;;;;;11.77;6.28;;;;;;;;;;4997840;28;20026;-86
2023/05/21 10:26:41;;;;;;;10.23;6.63;;;;;;;;;;4980689;28;20412;-85
2023/05/21 10:29:07;;;;;;;8.45;6.80;;;;;;;;;;4980828;28;20041;-87
2023/05/21 10:31:34;;;;;;;10.43;6.47;;;;;;;;;;4998164;28;20022;-86
2023/05/21 10:34:00;;;;;;;10.82;6.72;;;;;;;;;;4980912;28;20401;-86
2023/05/21 10:36:30;;;;;;;12.27;6.70;;;;;;;;;;4997672;28;20018;-85
2023/05/21 10:38:56;;;;;;;10.85;6.40;;;;;;;;;;4980232;28;20026;-85
2023/05/21 10:41:25;;;;;;;9.93;6.55;;;;;;;;;;4998013;28;20360;-85
2023/05/21 10:43:57;;;;;;;12.98;6.15;;;;;;;;;;4997659;28;20041;-86
2023/05/21 10:46:23;;;;;;;9.57;6.70;;;;;;;;;;4997735;28;20042;-87
2023/05/21 10:49:06;;;;;;;11.07;6.80;;;;;;;;;;4997682;28;20515;-86
2023/05/21 10:51:36;;;;;;;11.48;6.10;;;;;;;;;;4961460;28;20413;-87
2023/05/21 10:54:08;;;;;;;9.55;6.63;;;;;;;;;;4978722;28;20027;-86
2023/05/21 10:56:40;;;;;;;11.55;6.47;;;;;;;;;;4978545;28;20034;-86
2023/05/21 10:59:10;;;;;;;10.77;6.10;;;;;;;;;;4975954;28;20049;-87
2023/05/21 11:01:37;;;;;;;8.10;6.32;;;;;;;;;;4998109;28;20039;-86
2023/05/21 11:04:04;;;;;;;10.68;6.00;;;;;;;;;;4997679;28;20034;-86
2023/05/21 11:06:31;;;;;;;8.80;6.10;;;;;;;;;;4997653;28;20093;-85
2023/05/21 11:09:00;;;;;;;10.68;6.50;;;;;;;;;;5000207;28;20023;-86
2023/05/21 11:11:43;;;;;;;7.47;6.18;;;;;;;;;;5001452;28;20344;-86
2023/05/21 11:14:30;;;;;;;10.40;6.35;;;;;;;;;;5001118;28;20034;-86
2023/05/21 11:16:56;;;;;;;10.98;6.22;;;;;;;;;;5001156;28;20061;-86
2023/05/21 11:19:31;;;;;;;10.48;6.88;;;;;;;;;;5001551;28;20062;-86
2023/05/21 11:21:58;;;;;;;9.18;5.88;;;;;;;;;;5001422;28;20042;-86
2023/05/21 11:24:26;;;;;;;14.75;6.72;;;;;;;;;;4984034;28;20026;-86
2023/05/21 11:26:57;;;;;;;11.30;6.97;;;;;;;;;;4983866;28;20370;-86
2023/05/21 11:29:52;;;;;;;10.25;7.00;;;;;;;;;;5000949;28;20026;-86
2023/05/21 11:32:19;;;;;;;13.10;6.30;;;;;;;;;;4887736;29;20036;-86
2023/05/21 11:34:46;;;;;;;8.57;6.20;;;;;;;;;;4903481;29;20029;-86
2023/05/21 11:39:47;;;;;;;7.45;6.65;;;;;;;;;;4904151;29;20037;-88
2023/05/21 11:42:26;;;;;;;9.52;6.43;;;;;;;;;;4904389;29;20048;-87
2023/05/21 11:44:52;;;;;;;11.65;6.50;;;;;;;;;;4902440;29;20151;-87
2023/05/21 11:47:19;;;;;;;9.50;6.60;;;;;;;;;;4903218;29;20042;-87
2023/05/21 11:49:45;;;;;;;10.65;6.20;;;;;;;;;;4902734;29;20036;-87
2023/05/21 11:52:12;;;;;;;8.95;6.28;;;;;;;;;;4902445;29;20039;-87
2023/05/21 11:54:49;;;;;;;10.75;5.93;;;;;;;;;;4903325;29;20025;-87
2023/05/21 11:57:17;;;;;;;9.90;6.57;;;;;;;;;;4903074;29;20033;-88
2023/05/21 11:59:43;;;;;;;9.60;6.13;;;;;;;;;;4902519;29;20470;-88
2023/05/21 12:02:14;;;;;;;9.43;6.30;;;;;;;;;;4903133;29;20047;-87
2023/05/21 12:04:41;;;;;;;9.90;5.68;;;;;;;;;;4903222;29;20108;-87
2023/05/21 12:07:08;;;;;;;12.50;6.20;;;;;;;;;;4902931;29;20028;-87
2023/05/21 12:09:40;;;;;;;10.98;6.13;;;;;;;;;;4988640;28;20034;-87
2023/05/21 12:12:08;;;;;;;9.60;5.47;;;;;;;;;;5000453;28;20049;-87
2023/05/21 12:14:34;;;;;;;10.63;5.82;;;;;;;;;;5000352;28;20030;-88
2023/05/21 12:17:03;;;;;;;9.00;5.65;;;;;;;;;;4982822;28;20429;-88
2023/05/21 12:19:37;;;;;;;11.20;5.53;;;;;;;;;;4981712;28;20113;-88
2023/05/21 12:22:03;;;;;;;10.80;5.90;;;;;;;;;;5000257;28;20046;-88
2023/05/21 12:24:30;;;;;;;8.45;6.03;;;;;;;;;;5000235;28;20030;-88
2023/05/21 12:27:00;;;;;;;7.32;5.43;;;;;;;;;;5000212;28;20033;-87
2023/05/21 12:29:30;;;;;;;7.18;5.65;;;;;;;;;;4982857;28;20041;-88
2023/05/21 12:32:00;;;;;;;7.57;5.32;;;;;;;;;;4983022;28;20034;-88
2023/05/21 12:34:38;;;;;;;9.95;5.60;;;;;;;;;;4982747;28;20027;-87
2023/05/21 12:37:05;;;;;;;19.85;6.75;;;;;;;;;;4983183;28;20061;-87
2023/05/21 12:39:32;;;;;;;19.00;7.28;;;;;;;;;;4999673;28;20401;-86
2023/05/21 12:41:58;;;;;;;28.80;9.57;;;;;;;;;;4999322;28;20405;-84
2023/05/21 12:45:02;;;;;;;16.50;8.13;;;;;;;;;;4998721;28;20428;-86
2023/05/21 12:47:29;;;;;;;19.42;9.05;;;;;;;;;;4920444;29;20197;-88
2023/05/21 12:50:02;;;;;;;15.93;10.15;;;;;;;;;;4905099;29;20043;-87
2023/05/21 12:52:29;;;;;;;19.60;9.48;;;;;;;;;;4920451;29;20032;-87
2023/05/21 12:54:56;;;;;;;16.00;8.30;;;;;;;;;;4902027;29;20036;-86
2023/05/21 12:57:22;;;;;;;22.00;10.30;;;;;;;;;;4902213;29;20117;-89
2023/05/21 12:59:48;;;;;;;24.60;8.82;;;;;;;;;;4916941;29;20040;-86
2023/05/21 13:02:21;;;;;;;11.27;6.85;;;;;;;;;;4904892;29;20064;-87
2023/05/21 13:04:48;;;;;;;8.98;6.97;;;;;;;;;;4920398;28;20040;-86
2023/05/21 13:07:15;;;;;;;10.88;7.22;;;;;;;;;;4904806;29;20040;-86
2023/05/21 13:09:41;;;;;;;10.57;7.53;;;;;;;;;;4920829;29;20031;-87
2023/05/21 13:12:07;;;;;;;12.82;8.05;;;;;;;;;;4920411;29;20040;-86
2023/05/21 13:14:52;;;;;;;13.98;7.20;;;;;;;;;;4920025;29;20040;-87
2023/05/21 13:17:19;;;;;;;9.95;6.80;;;;;;;;;;4931034;28;20061;-88
2023/05/21 13:20:07;;;;;;;8.98;6.50;;;;;;;;;;4999437;28;20053;-87
2023/05/21 13:22:34;;;;;;;10.63;6.57;;;;;;;;;;4982041;28;20038;-86
2023/05/21 13:25:00;;;;;;;11.38;7.28;;;;;;;;;;4981281;28;20042;-85
2023/05/21 13:27:26;;;;;;;10.43;8.05;;;;;;;;;;4998611;28;20409;-94
2023/05/21 13:29:52;;;;;;;15.13;7.93;;;;;;;;;;4982997;28;20037;-85
2023/05/21 13:32:19;;;;;;;9.98;7.45;;;;;;;;;;4998620;28;20427;-84
2023/05/21 13:34:45;;;;;;;13.63;8.50;;;;;;;;;;4998773;28;20023;-88
2023/05/21 13:37:11;;;;;;;12.02;8.00;;;;;;;;;;4981554;28;20121;-83
2023/05/21 13:39:37;;;;;;;15.65;8.82;;;;;;;;;;4997838;28;20061;-82
2023/05/21 13:42:04;;;;;;;11.07;8.80;;;;;;;;;;4997937;28;20023;-84
2023/05/21 13:44:34;;;;;;;13.40;8.85;;;;;;;;;;4998056;28;20063;-84
2023/05/21 13:47:01;;;;;;;11.60;9.00;;;;;;;;;;4998189;28;20030;-84
2023/05/21 13:49:27;;;;;;;11.27;8.00;;;;;;;;;;4997866;28;20026;-85
2023/05/21 13:51:53;;;;;;;12.45;8.07;;;;;;;;;;4997988;28;20049;-85
2023/05/21 13:54:20;;;;;;;11.15;8.15;;;;;;;;;;4980813;28;20018;-85
2023/05/21 13:56:46;;;;;;;12.27;8.05;;;;;;;;;;4998452;28;20029;-83
2023/05/21 13:59:12;;;;;;;12.00;8.90;;;;;;;;;;4997772;28;20050;-84
2023/05/21 14:01:38;;;;;;;14.35;8.63;;;;;;;;;;4980587;28;20031;-84
2023/05/21 14:04:05;;;;;;;13.45;10.15;;;;;;;;;;4980840;28;20025;-84
2023/05/21 14:06:32;;;;;;;18.20;12.68;;;;;;;;;;4998423;28;20320;-84
2023/05/21 14:08:59;;;;;;;28.60;19.00;;;;;;;;;;4997853;28;20437;-84
2023/05/21 14:11:25;;;;;;;12.23;9.38;;;;;;;;;;4980332;28;20053;-84
2023/05/21 14:13:52;;;;;;;11.55;7.78;;;;;;;;;;4997893;28;20038;-84
2023/05/21 14:16:18;;;;;;;7.43;6.03;;;;;;;;;;4980500;28;20046;-84
2023/05/21 14:18:44;;;;;;;8.32;6.72;;;;;;;;;;4980066;28;20034;-84
2023/05/21 14:21:10;;;;;;;11.73;7.38;;;;;;;;;;4997968;28;20026;-84
2023/05/21 14:23:36;;;;;;;13.82;8.88;;;;;;;;;;4998038;28;20117;-84
2023/05/21 14:26:02;;;;;;;12.48;9.63;;;;;;;;;;4997890;28;20050;-84
2023/05/21 14:28:28;;;;;;;12.55;8.00;;;;;;;;;;4997804;28;20026;-85
2023/05/21 14:30:54;;;;;;;11.35;6.85;;;;;;;;;;4980342;28;20053;-85
2023/05/21 14:33:23;;;;;;;10.07;6.63;;;;;;;;;;4980715;28;20034;-85
2023/05/21 14:35:49;;;;;;;9.93;6.38;;;;;;;;;;4997375;28;20034;-85
2023/05/21 14:38:15;;;;;;;10.75;7.00;;;;;;;;;;4997304;28;20019;-84
2023/05/21 14:40:41;;;;;;;10.70;7.10;;;;;;;;;;4997327;28;20030;-84
2023/05/21 14:43:07;;;;;;;9.05;6.10;;;;;;;;;;4998142;28;20435;-84
2023/05/21 14:45:51;;;;;;;7.80;6.03;;;;;;;;;;5001745;28;20030;-85
2023/05/21 14:48:21;;;;;;;9.05;6.68;;;;;;;;;;5001481;28;20030;-85
2023/05/21 14:50:47;;;;;;;7.72;6.18;;;;;;;;;;4984040;28;20027;-85
2023/05/21 14:53:13;;;;;;;9.60;6.90;;;;;;;;;;4983682;28;20112;-85
2023/05/21 14:55:39;;;;;;;7.43;5.65;;;;;;;;;;5001594;28;20050;-84
2023/05/21 14:58:06;;;;;;;9.90;6.15;;;;;;;;;;5001392;28;20464;-86
2023/05/21 15:00:32;;;;;;;8.55;6.05;;;;;;;;;;4984062;28;20076;-85
2023/05/21 15:02:58;;;;;;;8.77;5.97;;;;;;;;;;5001433;28;20049;-85
2023/05/21 15:05:26;;;;;;;13.43;6.47;;;;;;;;;;5001236;28;20034;-85
2023/05/21 15:07:52;;;;;;;11.73;6.13;;;;;;;;;;5001253;28;20076;-85
2023/05/21 15:10:18;;;;;;;10.30;6.18;;;;;;;;;;4984051;28;20026;-85
2023/05/21 15:12:44;;;;;;;9.75;6.28;;;;;;;;;;5001263;28;20364;-86
2023/05/21 15:15:11;;;;;;;9.60;6.10;;;;;;;;;;5001321;28;20467;-85
2023/05/21 15:17:37;;;;;;;8.85;5.90;;;;;;;;;;5001100;28;20050;-85
2023/05/21 15:20:03;;;;;;;7.20;6.10;;;;;;;;;;4984065;28;20034;-85
2023/05/21 15:22:30;;;;;;;10.00;5.88;;;;;;;;;;5001107;28;20361;-85
2023/05/21 15:24:56;;;;;;;7.38;6.32;;;;;;;;;;5001228;28;20072;-86